createdAt,value
2023-04-04T00:00:45.119Z,84.70
2023-04-04T00:03:14.884Z,83.90
2023-04-04T00:05:43.760Z,83.90
2023-04-04T00:08:12.028Z,83.70
2023-04-04T00:10:40.831Z,83.70
2023-04-04T00:13:10.211Z,83.80
2023-04-04T00:15:38.453Z,83.80
2023-04-04T00:18:07.170Z,83.80
2023-04-04T00:20:37.314Z,83.70
2023-04-04T00:23:05.577Z,83.80
2023-04-04T00:25:33.797Z,83.80
2023-04-04T00:28:01.955Z,83.70
2023-04-04T00:30:30.467Z,83.70
2023-04-04T00:32:59.070Z,84.50
2023-04-04T00:35:27.395Z,83.70
2023-04-04T00:37:57.088Z,83.70
2023-04-04T00:40:25.474Z,83.70
2023-04-04T00:42:54.848Z,83.70
2023-04-04T00:45:23.279Z,83.70
2023-04-04T00:47:52.879Z,83.60
2023-04-04T00:50:21.799Z,83.70
2023-04-04T00:52:50.093Z,83.60
2023-04-04T00:55:19.767Z,83.60
2023-04-04T00:57:48.144Z,83.60
2023-04-04T01:00:17.291Z,83.70
2023-04-04T01:02:46.385Z,83.60
2023-04-04T01:05:14.759Z,84.50
2023-04-04T01:07:43.760Z,83.60
2023-04-04T01:10:13.583Z,83.60
2023-04-04T01:12:43.712Z,83.60
2023-04-04T01:15:12.665Z,83.60
2023-04-04T01:17:41.993Z,83.60
2023-04-04T01:20:14.111Z,83.60
2023-04-04T01:22:56.442Z,83.60
2023-04-04T01:25:32.017Z,83.50
2023-04-04T01:28:04.986Z,83.60
2023-04-04T01:30:37.612Z,83.60
2023-04-04T01:33:14.629Z,83.60
2023-04-04T01:35:48.041Z,83.60
2023-04-04T01:38:25.833Z,83.50
2023-04-04T01:41:02.384Z,83.50
2023-04-04T01:43:32.528Z,83.60
2023-04-04T01:46:02.776Z,83.50
2023-04-04T01:48:31.440Z,83.50
2023-04-04T01:51:04.929Z,83.50
2023-04-04T01:53:33.944Z,83.50
2023-04-04T01:56:03.550Z,84.30
2023-04-04T01:58:33.868Z,83.50
2023-04-04T02:01:02.262Z,83.50
2023-04-04T02:03:30.635Z,83.50
2023-04-04T02:05:58.816Z,83.50
2023-04-04T02:08:27.075Z,83.50
2023-04-04T02:10:59.457Z,83.60
2023-04-04T02:13:29.694Z,84.40
2023-04-04T02:16:00.106Z,83.50
2023-04-04T02:18:28.381Z,83.60
2023-04-04T02:20:57.724Z,83.60
2023-04-04T02:23:26.025Z,83.50
2023-04-04T02:25:54.325Z,83.60
2023-04-04T02:28:22.726Z,83.50
2023-04-04T02:30:52.406Z,83.40
2023-04-04T02:33:20.649Z,83.50
2023-04-04T02:35:49.886Z,83.60
2023-04-04T02:38:18.124Z,83.40
2023-04-04T02:40:47.942Z,83.50
2023-04-04T02:43:16.863Z,83.50
2023-04-04T02:45:45.792Z,83.50
2023-04-04T02:48:27.514Z,83.40
2023-04-04T02:50:59.987Z,83.50
2023-04-04T02:53:29.028Z,83.50
2023-04-04T02:56:03.838Z,83.40
2023-04-04T02:58:32.924Z,83.50
2023-04-04T03:01:01.438Z,84.30
2023-04-04T03:03:36.581Z,83.50
2023-04-04T03:06:05.388Z,83.60
2023-04-04T03:08:34.960Z,83.50
2023-04-04T03:11:03.504Z,83.50
2023-04-04T03:13:31.752Z,83.50
2023-04-04T03:16:02.683Z,83.50
2023-04-04T03:18:36.219Z,83.50
2023-04-04T03:21:05.011Z,83.50
2023-04-04T03:23:33.214Z,83.50
2023-04-04T03:26:02.121Z,83.50
2023-04-04T03:28:30.563Z,83.40
2023-04-04T03:31:05.202Z,83.50
2023-04-04T03:33:38.943Z,83.50
2023-04-04T03:36:12.051Z,83.40
2023-04-04T03:38:40.902Z,83.40
2023-04-04T03:41:10.820Z,83.40
2023-04-04T03:43:39.130Z,83.50
2023-04-04T03:46:08.006Z,83.50
2023-04-04T03:48:36.602Z,83.50
2023-04-04T03:51:09.562Z,83.50
2023-04-04T03:53:38.679Z,83.50
2023-04-04T03:56:07.054Z,83.50
2023-04-04T03:58:37.472Z,83.50
2023-04-04T04:01:05.705Z,83.50
2023-04-04T04:03:34.252Z,83.50
2023-04-04T04:06:02.658Z,83.50
2023-04-04T04:08:32.219Z,83.50
2023-04-04T04:11:05.512Z,83.50
2023-04-04T04:13:35.997Z,83.40
2023-04-04T04:16:04.864Z,83.40
2023-04-04T04:18:33.578Z,83.40
2023-04-04T04:21:04.010Z,83.40
2023-04-04T04:23:34.290Z,83.40
2023-04-04T04:26:03.478Z,83.40
2023-04-04T04:28:34.067Z,83.40
2023-04-04T04:31:07.272Z,83.40
2023-04-04T04:33:38.091Z,83.40
2023-04-04T04:36:07.466Z,83.30
2023-04-04T04:38:51.670Z,83.30
2023-04-04T04:41:20.036Z,83.40
2023-04-04T04:43:51.390Z,83.30
2023-04-04T04:46:19.699Z,83.40
2023-04-04T04:48:48.138Z,83.40
2023-04-04T04:51:18.123Z,83.40
2023-04-04T04:53:54.650Z,83.30
2023-04-04T04:56:24.852Z,83.30
2023-04-04T04:58:56.570Z,83.30
2023-04-04T05:01:27.595Z,83.30
2023-04-04T05:03:58.027Z,83.30
2023-04-04T05:06:34.591Z,83.30
2023-04-04T05:09:04.454Z,83.20
2023-04-04T05:11:36.054Z,83.20
2023-04-04T05:14:07.075Z,83.20
2023-04-04T05:16:47.589Z,83.20
2023-04-04T05:19:18.029Z,84.00
2023-04-04T05:21:50.825Z,83.20
2023-04-04T05:24:30.967Z,83.10
2023-04-04T05:27:01.000Z,83.10
2023-04-04T05:29:34.451Z,83.10
2023-04-04T05:32:04.425Z,83.10
2023-04-04T05:34:33.598Z,83.10
2023-04-04T05:37:04.087Z,83.10
2023-04-04T05:39:36.463Z,83.10
2023-04-04T05:42:07.791Z,83.10
2023-04-04T05:44:40.527Z,83.00
2023-04-04T05:47:10.239Z,83.00
2023-04-04T05:49:41.835Z,82.80
2023-04-04T05:52:11.207Z,82.80
2023-04-04T05:54:41.127Z,82.80
2023-04-04T05:57:15.290Z,82.80
2023-04-04T05:59:47.262Z,82.70
2023-04-04T06:02:17.731Z,82.70
2023-04-04T06:04:51.587Z,82.60
2023-04-04T06:07:28.482Z,82.70
2023-04-04T06:09:58.755Z,82.60
2023-04-04T06:12:27.175Z,82.50
2023-04-04T06:14:55.964Z,82.50
2023-04-04T06:17:25.495Z,82.50
2023-04-04T06:19:55.274Z,82.50
2023-04-04T06:22:24.279Z,82.40
2023-04-04T06:24:55.218Z,82.40
2023-04-04T06:27:27.163Z,82.40
2023-04-04T06:29:55.954Z,82.30
2023-04-04T06:32:25.496Z,82.30
2023-04-04T06:34:54.625Z,82.20
2023-04-04T06:37:37.224Z,82.20
2023-04-04T06:40:13.791Z,82.10
2023-04-04T06:42:52.284Z,82.00
2023-04-04T06:45:23.588Z,82.00
2023-04-04T06:47:53.591Z,82.00
2023-04-04T06:50:22.464Z,82.60
2023-04-04T06:52:51.402Z,82.00
2023-04-04T06:55:20.119Z,81.80
2023-04-04T06:57:50.023Z,81.80
2023-04-04T07:00:18.884Z,81.70
2023-04-04T07:02:47.256Z,81.70
2023-04-04T07:05:17.958Z,81.80
2023-04-04T07:07:46.436Z,81.80
2023-04-04T07:10:14.739Z,81.70
2023-04-04T07:12:43.679Z,81.70
2023-04-04T07:15:13.669Z,81.80
2023-04-04T07:17:42.057Z,81.80
2023-04-04T07:20:11.471Z,81.70
2023-04-04T07:22:40.540Z,81.60
2023-04-04T07:25:09.846Z,81.70
2023-04-04T07:27:38.080Z,81.70
2023-04-04T07:30:07.301Z,81.60
2023-04-04T07:32:38.190Z,81.60
2023-04-04T07:35:08.149Z,81.60
2023-04-04T07:37:38.233Z,81.60
2023-04-04T07:40:09.408Z,81.60
2023-04-04T07:42:38.146Z,81.50
2023-04-04T07:45:07.135Z,81.60
2023-04-04T07:47:37.374Z,81.50
2023-04-04T07:50:06.543Z,81.40
2023-04-04T07:52:35.612Z,81.40
2023-04-04T07:55:04.024Z,81.30
2023-04-04T07:57:32.383Z,81.40
2023-04-04T08:00:00.793Z,81.30
2023-04-04T08:02:29.163Z,81.40
2023-04-04T08:04:58.876Z,81.40
2023-04-04T08:07:29.263Z,81.40
2023-04-04T08:09:58.622Z,81.30
2023-04-04T08:12:26.890Z,81.40
2023-04-04T08:14:55.092Z,81.30
2023-04-04T08:17:23.515Z,81.40
2023-04-04T08:19:52.259Z,81.40
2023-04-04T08:22:21.846Z,81.30
2023-04-04T08:24:50.763Z,81.20
2023-04-04T08:27:19.418Z,81.20
2023-04-04T08:29:48.160Z,81.30
2023-04-04T08:32:16.401Z,81.20
2023-04-04T08:34:44.666Z,81.20
2023-04-04T08:37:13.033Z,81.20
2023-04-04T08:39:42.819Z,81.20
2023-04-04T08:42:12.480Z,81.10
2023-04-04T08:44:43.817Z,81.10
2023-04-04T08:47:13.646Z,81.10
2023-04-04T08:49:45.221Z,81.10
2023-04-04T08:52:14.150Z,81.10
2023-04-04T08:54:46.333Z,81.10
2023-04-04T08:57:14.610Z,81.00
2023-04-04T08:59:43.261Z,81.00
2023-04-04T09:02:18.755Z,80.90
2023-04-04T09:05:02.431Z,81.10
2023-04-04T09:07:36.441Z,81.00
2023-04-04T09:10:10.668Z,81.00
2023-04-04T09:12:40.995Z,81.00
2023-04-04T09:15:10.727Z,81.00
2023-04-04T09:17:39.075Z,81.00
2023-04-04T09:20:35.149Z,81.80
2023-04-04T09:23:06.481Z,80.90
2023-04-04T09:25:37.098Z,80.90
2023-04-04T09:28:06.268Z,80.90
2023-04-04T09:30:35.781Z,80.90
2023-04-04T09:33:05.864Z,80.80
2023-04-04T09:35:36.512Z,80.80
2023-04-04T09:38:05.008Z,80.80
2023-04-04T09:40:33.565Z,80.80
2023-04-04T09:43:04.725Z,80.80
2023-04-04T09:45:34.304Z,80.80
2023-04-04T09:48:02.857Z,80.80
2023-04-04T09:50:33.544Z,80.70
2023-04-04T09:53:02.034Z,80.80
2023-04-04T09:55:35.011Z,80.70
2023-04-04T09:58:13.620Z,80.70
2023-04-04T10:00:44.884Z,80.70
2023-04-04T10:03:15.348Z,80.70
2023-04-04T10:05:43.661Z,80.70
2023-04-04T10:08:16.875Z,80.60
2023-04-04T10:11:07.138Z,80.70
2023-04-04T10:13:42.258Z,80.70
2023-04-04T10:16:13.772Z,80.70
2023-04-04T10:18:42.287Z,80.60
2023-04-04T10:23:44.098Z,80.60
2023-04-04T10:26:13.482Z,80.60
2023-04-04T10:28:43.935Z,80.50
2023-04-04T10:31:19.257Z,80.40
2023-04-04T10:33:53.581Z,80.40
2023-04-04T10:36:24.608Z,80.50
2023-04-04T10:39:05.538Z,80.50
2023-04-04T10:41:34.113Z,80.30
2023-04-04T10:44:14.519Z,80.20
2023-04-04T10:46:47.514Z,80.20
2023-04-04T10:49:17.058Z,80.20
2023-04-04T10:51:55.701Z,80.30
2023-04-04T10:54:27.662Z,80.30
2023-04-04T10:57:00.705Z,80.20
2023-04-04T10:59:31.104Z,80.10
2023-04-04T11:02:02.304Z,80.00
2023-04-04T11:04:34.173Z,80.10
2023-04-04T11:07:13.985Z,80.20
2023-04-04T11:09:53.531Z,80.00
2023-04-04T11:12:24.090Z,80.10
2023-04-04T11:15:14.408Z,80.90
2023-04-04T11:17:57.700Z,81.00
2023-04-04T11:20:34.460Z,80.20
2023-04-04T11:23:11.205Z,80.00
2023-04-04T11:25:42.612Z,80.00
2023-04-04T11:28:16.811Z,80.10
2023-04-04T11:30:48.985Z,80.00
2023-04-04T11:33:30.885Z,80.20
2023-04-04T11:36:08.619Z,80.10
2023-04-04T11:38:40.972Z,80.20
2023-04-04T11:41:10.492Z,80.20
2023-04-04T11:43:46.711Z,80.10
2023-04-04T11:46:19.627Z,80.10
2023-04-04T11:48:49.389Z,80.10
2023-04-04T11:51:19.682Z,80.10
2023-04-04T11:53:49.106Z,80.20
2023-04-04T11:56:17.584Z,80.20
2023-04-04T11:58:53.835Z,80.20
2023-04-04T12:01:28.440Z,80.20
2023-04-04T12:03:57.253Z,80.10
2023-04-04T12:06:25.559Z,80.10
2023-04-04T12:08:53.941Z,80.20
2023-04-04T12:11:23.530Z,80.10
2023-04-04T12:13:52.275Z,80.10
2023-04-04T12:16:21.277Z,80.20
2023-04-04T12:18:51.116Z,80.30
2023-04-04T12:21:19.577Z,80.20
2023-04-04T12:23:49.533Z,80.20
2023-04-04T12:26:19.044Z,81.10
2023-04-04T12:28:48.044Z,80.20
2023-04-04T12:31:17.129Z,80.10
2023-04-04T12:33:45.579Z,80.10
2023-04-04T12:36:15.249Z,80.10
2023-04-04T12:38:58.910Z,80.10
2023-04-04T12:41:27.723Z,80.30
2023-04-04T12:44:03.321Z,80.10
2023-04-04T12:46:38.798Z,80.00
2023-04-04T12:49:09.497Z,80.10
2023-04-04T12:51:39.814Z,80.20
2023-04-04T12:54:09.112Z,80.10
2023-04-04T12:56:37.903Z,80.10
2023-04-04T12:59:10.839Z,80.00
2023-04-04T13:01:39.592Z,80.10
2023-04-04T13:04:10.584Z,80.20
2023-04-04T13:06:40.732Z,80.10
2023-04-04T13:09:18.310Z,80.10
2023-04-04T13:12:08.526Z,80.20
2023-04-04T13:15:01.918Z,80.20
2023-04-04T13:17:44.124Z,80.00
2023-04-04T13:20:13.247Z,80.00
2023-04-04T13:22:43.450Z,80.10
2023-04-04T13:25:12.611Z,80.00
2023-04-04T13:27:41.419Z,80.00
2023-04-04T13:30:11.630Z,79.90
2023-04-04T13:32:40.009Z,80.00
2023-04-04T13:35:09.510Z,79.80
2023-04-04T13:37:37.846Z,80.00
2023-04-04T13:40:09.073Z,80.00
2023-04-04T13:42:37.530Z,79.90
2023-04-04T13:45:06.568Z,79.80
2023-04-04T13:47:36.164Z,79.90
2023-04-04T13:50:04.763Z,80.00
2023-04-04T13:52:33.095Z,80.00
2023-04-04T13:55:02.393Z,80.00
2023-04-04T13:57:32.449Z,79.80
2023-04-04T14:00:00.868Z,80.10
2023-04-04T14:02:29.254Z,79.80
2023-04-04T14:04:57.551Z,79.80
2023-04-04T14:07:25.892Z,79.80
2023-04-04T14:09:54.094Z,79.90
2023-04-04T14:12:22.309Z,80.00
2023-04-04T14:14:52.043Z,79.70
2023-04-04T14:17:20.313Z,79.70
2023-04-04T14:19:48.654Z,79.60
2023-04-04T14:22:16.918Z,79.60
2023-04-04T14:24:45.500Z,79.80
2023-04-04T14:27:13.884Z,79.70
2023-04-04T14:29:42.088Z,79.60
2023-04-04T14:32:12.324Z,80.00
2023-04-04T14:34:40.536Z,79.90
2023-04-04T14:37:08.885Z,79.90
2023-04-04T14:39:37.149Z,79.60
2023-04-04T14:42:05.934Z,79.70
2023-04-04T14:44:34.576Z,79.50
2023-04-04T14:47:03.342Z,79.40
2023-04-04T14:49:33.252Z,79.70
2023-04-04T14:52:01.575Z,79.80
2023-04-04T14:54:29.820Z,79.50
2023-04-04T14:56:58.951Z,79.50
2023-04-04T14:59:27.226Z,79.40
2023-04-04T15:01:55.520Z,79.30
2023-04-04T15:04:24.042Z,79.60
2023-04-04T15:06:53.908Z,79.60
2023-04-04T15:09:23.200Z,79.40
2023-04-04T15:11:52.277Z,79.30
2023-04-04T15:14:20.580Z,79.60
2023-04-04T15:16:48.896Z,79.50
2023-04-04T15:19:17.356Z,79.50
2023-04-04T15:21:46.295Z,79.30
2023-04-04T15:24:15.988Z,79.40
2023-04-04T15:26:44.698Z,79.30
2023-04-04T15:29:14.660Z,79.20
2023-04-04T15:31:43.017Z,79.20
2023-04-04T15:34:11.293Z,79.20
2023-04-04T15:36:39.584Z,79.40
2023-04-04T15:39:08.722Z,79.30
2023-04-04T15:41:38.492Z,79.30
2023-04-04T15:44:06.978Z,79.20
2023-04-04T15:46:35.217Z,79.30
2023-04-04T15:49:04.201Z,79.40
2023-04-04T15:51:32.662Z,79.10
2023-04-04T15:54:01.034Z,79.20
2023-04-04T15:56:29.352Z,79.00
2023-04-04T15:58:59.730Z,78.90
2023-04-04T16:01:28.174Z,79.20
2023-04-04T16:03:56.665Z,79.10
2023-04-04T16:06:25.737Z,78.90
2023-04-04T16:08:54.349Z,79.00
2023-04-04T16:11:22.811Z,78.90
2023-04-04T16:13:51.145Z,78.70
2023-04-04T16:16:20.984Z,78.90
2023-04-04T16:18:49.250Z,78.80
2023-04-04T16:21:17.689Z,78.70
2023-04-04T16:23:45.901Z,78.90
2023-04-04T16:26:14.182Z,78.60
2023-04-04T16:28:43.460Z,78.80
2023-04-04T16:31:15.543Z,78.70
2023-04-04T16:33:45.233Z,78.70
2023-04-04T16:36:13.868Z,78.60
2023-04-04T16:38:42.181Z,78.60
2023-04-04T16:41:10.532Z,78.60
2023-04-04T16:43:38.893Z,78.40
2023-04-04T16:46:07.182Z,78.60
2023-04-04T16:48:35.541Z,78.40
2023-04-04T16:51:06.441Z,78.70
2023-04-04T16:53:34.725Z,78.70
2023-04-04T16:56:02.936Z,78.60
2023-04-04T16:58:33.071Z,78.50
2023-04-04T17:01:01.377Z,78.60
2023-04-04T17:03:29.709Z,78.60
2023-04-04T17:06:00.318Z,79.40
2023-04-04T17:08:29.985Z,78.70
2023-04-04T17:10:58.233Z,78.60
2023-04-04T17:13:26.762Z,78.70
2023-04-04T17:15:55.520Z,78.70
2023-04-04T17:18:24.092Z,78.70
2023-04-04T17:20:53.427Z,78.70
2023-04-04T17:23:21.739Z,78.60
2023-04-04T17:25:51.338Z,78.70
2023-04-04T17:28:20.574Z,78.70
2023-04-04T17:30:48.835Z,78.70
2023-04-04T17:33:17.128Z,78.70
2023-04-04T17:35:48.218Z,78.60
2023-04-04T17:38:16.663Z,78.80
2023-04-04T17:40:44.942Z,78.60
2023-04-04T17:43:14.622Z,78.80
2023-04-04T17:45:43.910Z,78.60
2023-04-04T17:48:12.494Z,78.70
2023-04-04T17:50:41.407Z,78.60
2023-04-04T17:53:09.780Z,78.60
2023-04-04T17:55:39.797Z,78.50
2023-04-04T17:58:08.429Z,79.40
2023-04-04T18:00:38.515Z,78.80
2023-04-04T18:03:07.011Z,78.70
2023-04-04T18:05:35.462Z,78.60
2023-04-04T18:08:05.091Z,78.70
2023-04-04T18:10:36.424Z,78.70
2023-04-04T18:13:05.396Z,78.60
2023-04-04T18:15:34.567Z,78.70
2023-04-04T18:18:06.172Z,78.70
2023-04-04T18:20:36.025Z,78.80
2023-04-04T18:23:04.489Z,78.80
2023-04-04T18:25:34.155Z,78.70
2023-04-04T18:28:03.182Z,78.80
2023-04-04T18:30:31.841Z,78.60
2023-04-04T18:33:00.122Z,78.80
2023-04-04T18:35:29.731Z,78.70
2023-04-04T18:37:57.975Z,78.80
2023-04-04T18:40:26.190Z,78.80
2023-04-04T18:42:54.777Z,78.70
2023-04-04T18:45:33.366Z,78.80
2023-04-04T18:48:06.890Z,78.90
2023-04-04T18:50:36.955Z,78.90
2023-04-04T18:53:05.187Z,78.80
2023-04-04T18:55:35.156Z,78.80
2023-04-04T18:58:03.425Z,78.90
2023-04-04T19:00:31.955Z,79.00
2023-04-04T19:03:00.653Z,78.90
2023-04-04T19:05:33.201Z,78.90
2023-04-04T19:08:04.053Z,78.90
2023-04-04T19:10:32.816Z,78.90
2023-04-04T19:13:01.362Z,78.90
2023-04-04T19:15:29.693Z,78.90
2023-04-04T19:17:58.358Z,78.90
2023-04-04T19:20:27.292Z,78.90
2023-04-04T19:22:55.626Z,79.00
2023-04-04T19:25:25.642Z,79.10
2023-04-04T19:27:53.972Z,78.90
2023-04-04T19:30:42.330Z,79.00
2023-04-04T19:33:11.987Z,78.90
2023-04-04T19:35:53.488Z,78.90
2023-04-04T19:38:28.189Z,79.00
2023-04-04T19:40:59.653Z,79.10
2023-04-04T19:43:28.846Z,79.00
2023-04-04T19:45:58.434Z,79.80
2023-04-04T19:48:51.082Z,79.10
2023-04-04T19:51:44.319Z,79.00
2023-04-04T19:54:15.915Z,79.00
2023-04-04T19:56:47.422Z,79.00
2023-04-04T20:00:07.720Z,79.10
2023-04-04T20:02:57.066Z,79.10
2023-04-04T20:06:03.988Z,79.00
2023-04-04T20:08:44.284Z,78.90
2023-04-04T20:11:13.915Z,79.00
2023-04-04T20:13:44.277Z,79.00
2023-04-04T20:16:14.450Z,79.00
2023-04-04T20:18:44.540Z,79.00
2023-04-04T20:21:14.910Z,79.00
2023-04-04T20:23:49.499Z,79.00
2023-04-04T20:26:46.173Z,79.00
2023-04-04T20:29:16.956Z,79.00
2023-04-04T20:31:47.111Z,79.10
2023-04-04T20:34:38.740Z,79.00
2023-04-04T20:37:10.163Z,79.00
2023-04-04T20:39:41.604Z,79.00
2023-04-04T20:42:21.234Z,79.00
2023-04-04T20:44:50.756Z,79.00
2023-04-04T20:47:41.555Z,79.00
2023-04-04T20:50:36.367Z,79.00
2023-04-04T20:53:05.836Z,79.00
2023-04-04T20:55:36.474Z,79.00
2023-04-04T20:58:08.915Z,79.00
2023-04-04T21:00:41.801Z,79.00
2023-04-04T21:03:12.187Z,79.00
2023-04-04T21:05:41.652Z,79.00
2023-04-04T21:08:41.069Z,79.00
2023-04-04T21:11:10.375Z,79.00
2023-04-04T21:13:40.244Z,79.00
2023-04-04T21:16:12.054Z,79.00
2023-04-04T21:18:41.916Z,79.10
2023-04-04T21:21:20.584Z,79.00
2023-04-04T21:23:52.573Z,79.00
2023-04-04T21:26:28.515Z,78.90
2023-04-04T21:28:58.432Z,79.10
2023-04-04T21:31:30.815Z,79.10
2023-04-04T21:34:03.171Z,79.80
2023-04-04T21:36:31.600Z,78.90
2023-04-04T21:39:01.896Z,79.00
2023-04-04T21:41:31.658Z,79.10
2023-04-04T21:44:01.624Z,78.90
2023-04-04T21:46:33.737Z,79.10
2023-04-04T21:49:02.449Z,78.90
2023-04-04T21:51:31.119Z,79.10
2023-04-04T21:54:00.264Z,79.00
2023-04-04T21:56:31.551Z,79.10
2023-04-04T21:59:00.592Z,79.00
2023-04-04T22:01:30.389Z,79.00
2023-04-04T22:04:00.624Z,79.10
2023-04-04T22:06:30.786Z,78.90
2023-04-04T22:09:01.826Z,79.00
2023-04-04T22:11:30.440Z,79.10
2023-04-04T22:14:04.504Z,79.10
2023-04-04T22:16:37.025Z,79.10
2023-04-04T22:19:07.386Z,79.00
2023-04-04T22:21:37.064Z,79.00
2023-04-04T22:24:06.411Z,79.10
2023-04-04T22:26:34.924Z,79.10
2023-04-04T22:29:05.382Z,79.10
2023-04-04T22:31:35.176Z,79.00
2023-04-04T22:34:04.012Z,79.00
2023-04-04T22:36:34.472Z,79.80
2023-04-04T22:39:03.099Z,79.00
2023-04-04T22:41:31.594Z,79.00
2023-04-04T22:43:59.824Z,79.00
2023-04-04T22:46:29.444Z,79.00
2023-04-04T22:49:05.679Z,79.00
2023-04-04T22:51:43.356Z,78.90
2023-04-04T22:54:14.357Z,79.00
2023-04-04T22:56:43.084Z,79.00
2023-04-04T22:59:11.590Z,79.10
2023-04-04T23:01:40.374Z,79.00
2023-04-04T23:04:08.799Z,79.00
2023-04-04T23:06:38.680Z,79.00
2023-04-04T23:09:07.932Z,79.10
2023-04-04T23:11:37.049Z,79.10
2023-04-04T23:14:08.833Z,79.00
2023-04-04T23:16:37.850Z,79.10
2023-04-04T23:19:06.214Z,79.00
2023-04-04T23:21:34.557Z,79.10
2023-04-04T23:24:04.784Z,79.00
2023-04-04T23:26:33.549Z,79.00
2023-04-04T23:29:02.996Z,79.00
2023-04-04T23:31:33.677Z,79.00
2023-04-04T23:34:01.909Z,79.00
2023-04-04T23:36:31.029Z,79.00
2023-04-04T23:39:00.148Z,79.00
2023-04-04T23:41:29.830Z,79.00
2023-04-04T23:43:58.159Z,79.10
2023-04-04T23:46:30.189Z,79.10
2023-04-04T23:48:58.493Z,79.10
2023-04-04T23:51:30.325Z,79.00
2023-04-04T23:53:58.616Z,79.00
2023-04-04T23:56:26.890Z,79.00
2023-04-04T23:58:56.523Z,79.00
